Time;durP1;ratioP1;P1;durP2;ratioP2;P2;SDS_P1;SDS_P2;PMS_P1;PMS_P2;Temp;Humidity;BMP_temperature;BMP_pressure;BME280_temperature;BME280_humidity;BME280_pressure;Samples;Min_cycle;Max_cycle;Signal;HPM_P1;HPM_P2
2022/09/18 00:01:36;;;;;;;5.93;3.10;;;;;;;;;;4974802;28;20376;-64
2022/09/18 00:04:02;;;;;;;;;;;;;;;;;;4975371;28;20054;-64
2022/09/18 00:06:30;;;;;;;3.58;2.60;;;;;;;;;;4974693;28;19922;-64
2022/09/18 00:08:58;;;;;;;10.02;3.03;;;;;;;;;;4974697;28;20426;-64
2022/09/18 00:11:26;;;;;;;4.05;2.80;;;;;;;;;;4974852;28;20066;-63
2022/09/18 00:13:52;;;;;;;3.13;2.63;;;;;;;;;;4974898;28;20077;-64
2022/09/18 00:16:19;;;;;;;4.25;2.65;;;;;;;;;;4974477;28;20046;-64
2022/09/18 00:18:46;;;;;;;6.55;2.85;;;;;;;;;;4974612;28;20138;-64
2022/09/18 00:21:15;;;;;;;3.88;2.70;;;;;;;;;;4974752;28;20047;-64
2022/09/18 00:23:41;;;;;;;4.18;3.10;;;;;;;;;;4974390;28;20073;-64
2022/09/18 00:26:08;;;;;;;3.70;2.60;;;;;;;;;;4973351;28;20047;-63
2022/09/18 00:28:35;;;;;;;5.65;3.42;;;;;;;;;;4973498;28;20049;-64
2022/09/18 00:31:05;;;;;;;4.97;3.25;;;;;;;;;;4974132;28;20544;-64
2022/09/18 00:33:32;;;;;;;5.65;3.20;;;;;;;;;;4974357;28;20051;-63
2022/09/18 00:35:59;;;;;;;5.32;3.70;;;;;;;;;;4974581;28;20153;-64
2022/09/18 00:38:25;;;;;;;6.03;4.10;;;;;;;;;;4974103;28;20061;-63
2022/09/18 00:40:51;;;;;;;6.28;3.80;;;;;;;;;;4974247;28;20284;-63
2022/09/18 00:43:22;;;;;;;5.93;3.30;;;;;;;;;;4974150;28;20053;-66
2022/09/18 00:46:00;;;;;;;4.18;2.95;;;;;;;;;;4973397;28;20047;-64
2022/09/18 00:48:26;;;;;;;;;;;;;;;;;;4974516;28;20066;-64
2022/09/18 00:50:53;;;;;;;4.70;2.95;;;;;;;;;;4974204;28;19922;-64
2022/09/18 00:53:19;;;;;;;5.25;3.00;;;;;;;;;;4974038;28;20065;-64
2022/09/18 00:55:46;;;;;;;3.83;3.15;;;;;;;;;;4973785;28;20062;-64
2022/09/18 00:58:12;;;;;;;6.53;3.85;;;;;;;;;;4974427;28;20076;-65
2022/09/18 01:00:39;;;;;;;6.88;3.38;;;;;;;;;;4973798;28;20410;-65
2022/09/18 01:03:05;;;;;;;4.88;3.47;;;;;;;;;;4973875;28;20050;-64
2022/09/18 01:05:50;;;;;;;4.53;2.90;;;;;;;;;;4973494;28;20047;-64
2022/09/18 01:08:23;;;;;;;3.40;2.85;;;;;;;;;;4973829;28;20417;-64
2022/09/18 01:10:55;;;;;;;4.43;2.85;;;;;;;;;;4973696;28;20061;-65
2022/09/18 01:13:37;;;;;;;5.40;3.05;;;;;;;;;;4973665;28;20058;-65
2022/09/18 01:16:10;;;;;;;5.95;3.25;;;;;;;;;;4973626;28;20478;-64
2022/09/18 01:18:39;;;;;;;4.53;3.33;;;;;;;;;;4973380;28;20050;-64
2022/09/18 01:21:16;;;;;;;5.35;2.83;;;;;;;;;;4973407;28;20062;-65
2022/09/18 01:23:54;;;;;;;5.90;3.38;;;;;;;;;;4973494;28;20057;-64
2022/09/18 01:26:39;;;;;;;4.97;3.40;;;;;;;;;;4973411;28;20422;-64
2022/09/18 01:29:14;;;;;;;4.35;3.15;;;;;;;;;;4973600;28;20506;-63
2022/09/18 01:31:49;;;;;;;4.72;3.63;;;;;;;;;;4973451;28;20047;-64
2022/09/18 01:34:15;;;;;;;4.25;3.72;;;;;;;;;;4973459;28;20096;-64
2022/09/18 01:36:44;;;;;;;6.13;4.15;;;;;;;;;;4973133;28;20054;-64
2022/09/18 01:39:19;;;;;;;6.40;4.38;;;;;;;;;;4973563;28;20046;-65
2022/09/18 01:41:50;;;;;;;5.10;4.13;;;;;;;;;;4973643;28;20089;-64
2022/09/18 01:44:19;;;;;;;5.03;4.32;;;;;;;;;;4973115;28;20046;-64
2022/09/18 01:46:45;;;;;;;5.50;3.65;;;;;;;;;;4972994;28;20061;-64
2022/09/18 01:49:15;;;;;;;4.18;2.90;;;;;;;;;;4973361;28;20065;-64
2022/09/18 01:52:05;;;;;;;5.13;3.08;;;;;;;;;;4973144;28;20058;-64
2022/09/18 01:54:34;;;;;;;3.50;3.10;;;;;;;;;;4943823;28;20055;-64
2022/09/18 01:57:06;;;;;;;6.60;3.70;;;;;;;;;;4971756;28;20058;-64
2022/09/18 01:59:46;;;;;;;6.88;4.65;;;;;;;;;;4972988;28;20050;-64
2022/09/18 02:02:19;;;;;;;7.32;4.00;;;;;;;;;;4973049;28;20042;-64
2022/09/18 02:04:47;;;;;;;6.22;3.60;;;;;;;;;;4973269;28;20050;-64
2022/09/18 02:07:37;;;;;;;3.50;3.03;;;;;;;;;;4972609;28;20054;-65
2022/09/18 02:10:03;;;;;;;5.47;3.67;;;;;;;;;;4954141;28;20057;-64
2022/09/18 02:12:32;;;;;;;5.75;3.80;;;;;;;;;;4972662;28;20057;-64
2022/09/18 02:15:00;;;;;;;4.85;4.10;;;;;;;;;;4973062;28;20073;-64
2022/09/18 02:17:30;;;;;;;4.35;3.70;;;;;;;;;;4973171;28;20051;-64
2022/09/18 02:20:01;;;;;;;4.25;3.38;;;;;;;;;;4973065;28;20510;-64
2022/09/18 02:22:30;;;;;;;4.68;3.10;;;;;;;;;;4972766;28;20055;-64
2022/09/18 02:25:00;;;;;;;6.63;3.72;;;;;;;;;;4972657;28;20266;-64
2022/09/18 02:27:28;;;;;;;5.47;3.63;;;;;;;;;;4972874;28;20051;-64
2022/09/18 02:29:55;;;;;;;8.13;4.63;;;;;;;;;;4972719;28;20057;-64
2022/09/18 02:32:21;;;;;;;6.28;4.10;;;;;;;;;;4972886;28;20073;-64
2022/09/18 02:34:48;;;;;;;5.40;4.07;;;;;;;;;;4972622;28;20043;-65
2022/09/18 02:37:14;;;;;;;4.47;3.47;;;;;;;;;;4972862;28;20070;-65
2022/09/18 02:40:00;;;;;;;4.05;3.10;;;;;;;;;;4972389;28;20046;-64
2022/09/18 02:42:38;;;;;;;4.50;3.42;;;;;;;;;;4972503;28;20047;-64
2022/09/18 02:45:11;;;;;;;4.82;3.30;;;;;;;;;;4972847;28;20049;-65
2022/09/18 02:47:58;;;;;;;5.32;3.58;;;;;;;;;;4972492;28;20055;-64
2022/09/18 02:50:28;;;;;;;5.25;3.53;;;;;;;;;;4952178;28;20049;-65
2022/09/18 02:53:04;;;;;;;3.75;3.35;;;;;;;;;;4972762;28;20046;-65
2022/09/18 02:55:51;;;;;;;4.63;3.33;;;;;;;;;;4972676;28;20043;-64
2022/09/18 02:58:25;;;;;;;5.45;4.00;;;;;;;;;;4972365;28;20063;-64
2022/09/18 03:00:54;;;;;;;4.88;3.63;;;;;;;;;;4972606;28;20058;-64
2022/09/18 03:03:25;;;;;;;4.78;3.78;;;;;;;;;;4972669;28;20055;-64
2022/09/18 03:05:51;;;;;;;6.03;4.10;;;;;;;;;;4972477;28;20058;-64
2022/09/18 03:08:18;;;;;;;4.93;3.60;;;;;;;;;;4972575;28;20058;-64
2022/09/18 03:10:44;;;;;;;4.10;3.65;;;;;;;;;;4974287;28;20057;-64
2022/09/18 03:13:10;;;;;;;6.43;3.97;;;;;;;;;;4975880;28;20047;-64
2022/09/18 03:15:37;;;;;;;5.07;4.03;;;;;;;;;;4975918;28;20245;-65
2022/09/18 03:18:03;;;;;;;4.35;3.95;;;;;;;;;;4975786;28;20046;-64
2022/09/18 03:20:30;;;;;;;5.10;3.97;;;;;;;;;;4975457;28;20520;-64
2022/09/18 03:22:56;;;;;;;5.90;4.30;;;;;;;;;;4975799;28;20050;-64
2022/09/18 03:25:22;;;;;;;5.88;4.50;;;;;;;;;;4975906;28;20047;-64
2022/09/18 03:27:52;;;;;;;6.25;4.30;;;;;;;;;;4975673;28;20049;-64
2022/09/18 03:30:18;;;;;;;4.68;3.58;;;;;;;;;;4975574;28;20062;-64
2022/09/18 03:32:45;;;;;;;4.40;3.97;;;;;;;;;;4975479;28;20057;-64
2022/09/18 03:35:11;;;;;;;6.22;3.60;;;;;;;;;;4975497;28;20150;-64
2022/09/18 03:37:38;;;;;;;4.65;3.90;;;;;;;;;;4975294;28;20054;-64
2022/09/18 03:40:04;;;;;;;3.88;3.47;;;;;;;;;;4975286;28;20517;-64
2022/09/18 03:42:31;;;;;;;6.43;3.42;;;;;;;;;;4975206;28;20101;-64
2022/09/18 03:44:57;;;;;;;3.83;3.08;;;;;;;;;;4975379;28;20047;-64
2022/09/18 03:47:24;;;;;;;4.10;3.22;;;;;;;;;;4975317;28;20061;-65
2022/09/18 03:49:50;;;;;;;5.63;3.67;;;;;;;;;;4975273;28;20051;-64
2022/09/18 03:52:17;;;;;;;4.88;3.72;;;;;;;;;;4975055;28;20285;-64
2022/09/18 03:54:43;;;;;;;7.65;4.70;;;;;;;;;;4975069;28;20051;-64
2022/09/18 03:57:10;;;;;;;3.53;3.22;;;;;;;;;;4975083;28;20062;-64
2022/09/18 03:59:36;;;;;;;3.67;3.35;;;;;;;;;;4974934;28;20047;-64
2022/09/18 04:02:02;;;;;;;5.18;3.65;;;;;;;;;;4974962;28;20047;-64
2022/09/18 04:04:29;;;;;;;5.13;4.30;;;;;;;;;;4974967;28;20050;-64
2022/09/18 04:06:55;;;;;;;5.03;3.67;;;;;;;;;;4974744;28;20055;-64
2022/09/18 04:09:21;;;;;;;5.35;4.20;;;;;;;;;;4975081;28;20050;-65
2022/09/18 04:11:48;;;;;;;4.03;3.63;;;;;;;;;;4974883;28;20059;-65
2022/09/18 04:14:15;;;;;;;4.80;3.45;;;;;;;;;;4974673;28;20047;-65
2022/09/18 04:16:41;;;;;;;6.00;3.83;;;;;;;;;;4974940;28;20059;-65
2022/09/18 04:19:08;;;;;;;5.40;3.70;;;;;;;;;;4974333;28;20054;-65
2022/09/18 04:21:34;;;;;;;8.15;4.20;;;;;;;;;;4973369;28;20046;-65
2022/09/18 04:24:00;;;;;;;6.70;4.30;;;;;;;;;;4974698;28;20077;-65
2022/09/18 04:26:27;;;;;;;5.20;4.00;;;;;;;;;;4974570;28;20050;-64
2022/09/18 04:28:53;;;;;;;7.10;4.18;;;;;;;;;;4974317;28;20051;-64
2022/09/18 04:31:20;;;;;;;4.00;3.70;;;;;;;;;;4974677;28;20039;-65
2022/09/18 04:33:47;;;;;;;5.32;4.60;;;;;;;;;;4974532;28;20093;-65
2022/09/18 04:36:14;;;;;;;6.35;4.38;;;;;;;;;;4974126;28;20046;-64
2022/09/18 04:38:49;;;;;;;5.53;4.28;;;;;;;;;;4974378;28;20053;-64
2022/09/18 04:41:16;;;;;;;7.00;5.38;;;;;;;;;;4974413;28;20043;-64
2022/09/18 04:43:42;;;;;;;5.63;4.47;;;;;;;;;;4974301;28;20046;-64
2022/09/18 04:46:09;;;;;;;5.30;4.28;;;;;;;;;;4974005;28;20062;-64
2022/09/18 04:48:35;;;;;;;3.70;3.00;;;;;;;;;;4973987;28;20101;-64
2022/09/18 04:51:01;;;;;;;5.75;4.45;;;;;;;;;;4974186;28;20055;-64
2022/09/18 04:53:28;;;;;;;5.80;4.40;;;;;;;;;;4974204;28;20058;-64
2022/09/18 04:55:54;;;;;;;7.03;4.07;;;;;;;;;;4974304;28;20057;-64
2022/09/18 04:58:20;;;;;;;5.55;4.20;;;;;;;;;;4973828;28;20057;-64
2022/09/18 05:00:48;;;;;;;8.25;4.32;;;;;;;;;;4973751;28;20053;-64
2022/09/18 05:03:16;;;;;;;4.65;3.70;;;;;;;;;;4973737;28;20128;-64
2022/09/18 05:05:43;;;;;;;4.55;3.58;;;;;;;;;;4973920;28;20055;-64
2022/09/18 05:08:09;;;;;;;5.60;3.80;;;;;;;;;;4973876;28;20054;-64
2022/09/18 05:10:35;;;;;;;5.55;3.55;;;;;;;;;;4973764;28;20047;-64
2022/09/18 05:13:02;;;;;;;5.03;4.00;;;;;;;;;;4973882;28;20054;-64
2022/09/18 05:15:28;;;;;;;5.10;4.05;;;;;;;;;;4973636;28;20054;-64
2022/09/18 05:17:58;;;;;;;5.28;4.30;;;;;;;;;;4973871;28;20057;-64
2022/09/18 05:20:25;;;;;;;4.60;3.97;;;;;;;;;;4973570;28;20113;-64
2022/09/18 05:22:51;;;;;;;5.75;3.95;;;;;;;;;;4973733;28;20046;-64
2022/09/18 05:25:19;;;;;;;5.18;4.05;;;;;;;;;;4973691;28;20480;-64
2022/09/18 05:27:52;;;;;;;5.55;3.67;;;;;;;;;;4973388;28;20053;-64
2022/09/18 05:30:19;;;;;;;3.83;3.40;;;;;;;;;;4973275;28;20069;-64
2022/09/18 05:32:57;;;;;;;4.13;3.70;;;;;;;;;;4971965;28;20043;-65
2022/09/18 05:35:25;;;;;;;5.15;4.10;;;;;;;;;;4973207;28;20514;-65
2022/09/18 05:37:53;;;;;;;5.30;3.63;;;;;;;;;;4973449;28;20074;-64
2022/09/18 05:40:22;;;;;;;4.77;3.93;;;;;;;;;;4973386;28;20054;-64
2022/09/18 05:42:49;;;;;;;4.95;4.07;;;;;;;;;;4972938;28;20051;-64
2022/09/18 05:45:15;;;;;;;6.57;4.10;;;;;;;;;;4973408;28;20047;-64
2022/09/18 05:47:42;;;;;;;5.32;4.05;;;;;;;;;;4973207;28;20154;-64
2022/09/18 05:50:08;;;;;;;5.28;3.70;;;;;;;;;;4973328;28;20066;-64
2022/09/18 05:52:35;;;;;;;7.05;4.15;;;;;;;;;;4973051;28;20525;-65
2022/09/18 05:55:01;;;;;;;5.65;3.92;;;;;;;;;;4972981;28;20054;-64
2022/09/18 05:57:27;;;;;;;10.00;4.35;;;;;;;;;;4972917;28;20510;-64
2022/09/18 05:59:54;;;;;;;7.65;4.25;;;;;;;;;;4973166;28;20073;-64
2022/09/18 06:02:20;;;;;;;5.20;3.75;;;;;;;;;;4973081;28;20051;-64
2022/09/18 06:04:47;;;;;;;7.38;3.70;;;;;;;;;;4972960;28;20050;-64
2022/09/18 06:07:15;;;;;;;5.47;4.10;;;;;;;;;;4972416;28;20054;-65
2022/09/18 06:09:41;;;;;;;;;;;;;;;;;;4973360;28;20426;-64
2022/09/18 06:12:07;;;;;;;6.80;3.70;;;;;;;;;;4973095;28;19929;-64
2022/09/18 06:14:34;;;;;;;4.80;4.00;;;;;;;;;;4972850;28;20070;-64
2022/09/18 06:17:00;;;;;;;6.07;4.00;;;;;;;;;;4972904;28;20051;-64
2022/09/18 06:19:26;;;;;;;6.38;4.28;;;;;;;;;;4972439;28;20042;-64
2022/09/18 06:21:53;;;;;;;5.32;4.18;;;;;;;;;;4973108;28;20054;-64
2022/09/18 06:24:19;;;;;;;5.40;3.75;;;;;;;;;;4972538;28;20050;-64
2022/09/18 06:26:47;;;;;;;6.70;4.05;;;;;;;;;;4972444;28;20058;-64
2022/09/18 06:29:13;;;;;;;5.97;3.70;;;;;;;;;;4972568;28;20432;-64
2022/09/18 06:31:40;;;;;;;5.05;3.63;;;;;;;;;;4972531;28;20054;-64
2022/09/18 06:34:06;;;;;;;3.97;3.50;;;;;;;;;;4972178;28;20047;-64
2022/09/18 06:36:32;;;;;;;5.07;4.00;;;;;;;;;;4972322;28;20490;-64
2022/09/18 06:38:59;;;;;;;7.32;4.00;;;;;;;;;;4972416;28;20050;-64
2022/09/18 06:41:25;;;;;;;5.75;3.90;;;;;;;;;;4972093;28;20453;-64
2022/09/18 06:43:52;;;;;;;5.18;4.28;;;;;;;;;;4973065;28;20415;-64
2022/09/18 06:46:18;;;;;;;5.55;4.10;;;;;;;;;;4975824;28;20726;-64
2022/09/18 06:48:46;;;;;;;6.20;3.90;;;;;;;;;;4962683;28;20487;-64
2022/09/18 06:51:13;;;;;;;5.10;3.70;;;;;;;;;;4973000;28;20046;-64
2022/09/18 06:53:39;;;;;;;5.30;3.33;;;;;;;;;;4975457;28;20058;-64
2022/09/18 06:56:06;;;;;;;6.13;3.90;;;;;;;;;;4975458;28;20055;-64
2022/09/18 06:58:32;;;;;;;6.38;3.80;;;;;;;;;;4973171;28;20051;-64
2022/09/18 07:00:59;;;;;;;8.07;4.78;;;;;;;;;;4975104;28;20051;-64
2022/09/18 07:03:26;;;;;;;6.35;4.72;;;;;;;;;;4975853;28;20054;-64
2022/09/18 07:05:52;;;;;;;5.72;3.97;;;;;;;;;;4972648;28;20051;-64
2022/09/18 07:08:19;;;;;;;7.20;4.70;;;;;;;;;;4975639;28;20043;-64
2022/09/18 07:10:45;;;;;;;6.82;4.47;;;;;;;;;;4975190;28;20047;-64
2022/09/18 07:13:11;;;;;;;6.07;4.55;;;;;;;;;;4974935;28;20053;-64
2022/09/18 07:15:38;;;;;;;6.15;4.80;;;;;;;;;;4975230;28;20058;-64
2022/09/18 07:18:05;;;;;;;7.00;4.55;;;;;;;;;;4975022;28;20411;-64
2022/09/18 07:20:32;;;;;;;6.50;4.03;;;;;;;;;;4974684;28;20038;-64
2022/09/18 07:22:59;;;;;;;6.50;4.30;;;;;;;;;;4975394;28;20059;-64
2022/09/18 07:25:26;;;;;;;8.10;5.00;;;;;;;;;;4975781;28;20050;-64
2022/09/18 07:27:53;;;;;;;8.40;4.68;;;;;;;;;;4961897;28;20057;-65
2022/09/18 07:30:20;;;;;;;8.00;4.80;;;;;;;;;;4972585;28;20050;-65
2022/09/18 07:32:46;;;;;;;7.00;4.28;;;;;;;;;;4975222;28;20060;-65
2022/09/18 07:35:12;;;;;;;5.70;4.13;;;;;;;;;;4975301;28;20066;-65
2022/09/18 07:37:39;;;;;;;5.35;3.60;;;;;;;;;;4974513;28;20054;-64
2022/09/18 07:40:06;;;;;;;4.25;3.50;;;;;;;;;;4974715;28;20412;-64
2022/09/18 07:42:33;;;;;;;;;;;;;;;;;;4974086;28;20046;-64
2022/09/18 07:44:59;;;;;;;2.53;2.33;;;;;;;;;;4972930;28;19929;-65
2022/09/18 07:47:26;;;;;;;4.60;2.90;;;;;;;;;;4974422;28;20047;-63
2022/09/18 07:49:53;;;;;;;4.72;2.28;;;;;;;;;;4974612;28;20046;-63
2022/09/18 07:52:20;;;;;;;4.30;2.72;;;;;;;;;;4974375;28;20077;-64
2022/09/18 07:54:46;;;;;;;5.18;3.22;;;;;;;;;;4974117;28;20050;-63
2022/09/18 07:57:13;;;;;;;3.30;2.47;;;;;;;;;;4973787;28;20059;-64
2022/09/18 07:59:39;;;;;;;5.15;2.45;;;;;;;;;;4967420;28;20047;-64
2022/09/18 08:02:05;;;;;;;4.38;2.80;;;;;;;;;;4969767;28;20050;-64
2022/09/18 08:04:32;;;;;;;4.55;2.60;;;;;;;;;;4974357;28;20486;-64
2022/09/18 08:07:02;;;;;;;3.53;2.13;;;;;;;;;;4974384;28;20055;-65
2022/09/18 08:09:29;;;;;;;4.82;2.10;;;;;;;;;;4974422;28;20205;-64
2022/09/18 08:11:55;;;;;;;2.00;1.20;;;;;;;;;;4974462;28;20051;-65
2022/09/18 08:14:22;;;;;;;3.85;0.85;;;;;;;;;;4974250;28;20051;-65
2022/09/18 08:16:54;;;;;;;2.45;0.70;;;;;;;;;;4973878;28;20051;-64
2022/09/18 08:19:20;;;;;;;0.90;0.70;;;;;;;;;;4973124;28;20042;-65
2022/09/18 08:21:47;;;;;;;1.25;0.50;;;;;;;;;;4973163;28;20375;-65
2022/09/18 08:24:16;;;;;;;1.63;0.60;;;;;;;;;;4974315;28;20054;-65
2022/09/18 08:26:42;;;;;;;1.30;0.60;;;;;;;;;;4973267;28;20043;-65
2022/09/18 08:29:09;;;;;;;0.88;0.60;;;;;;;;;;4974177;28;20047;-65
2022/09/18 08:31:35;;;;;;;0.80;0.50;;;;;;;;;;4973632;28;20057;-64
2022/09/18 08:34:02;;;;;;;2.22;0.75;;;;;;;;;;4973680;28;20058;-65
2022/09/18 08:36:28;;;;;;;1.38;0.50;;;;;;;;;;4970868;28;20066;-65
2022/09/18 08:38:54;;;;;;;0.97;0.40;;;;;;;;;;4973700;28;20047;-65
2022/09/18 08:41:24;;;;;;;1.90;0.57;;;;;;;;;;4973560;28;20042;-65
2022/09/18 08:43:53;;;;;;;0.80;0.40;;;;;;;;;;4973988;28;20046;-65
2022/09/18 08:46:26;;;;;;;0.50;0.35;;;;;;;;;;4973209;28;20047;-65
2022/09/18 08:48:56;;;;;;;1.30;0.50;;;;;;;;;;4972440;28;20054;-65
2022/09/18 08:51:30;;;;;;;1.40;0.50;;;;;;;;;;4959497;28;20062;-66
2022/09/18 08:54:03;;;;;;;1.10;0.60;;;;;;;;;;4961741;28;20043;-66
2022/09/18 08:56:30;;;;;;;1.45;0.70;;;;;;;;;;4970796;28;20764;-65
2022/09/18 08:58:59;;;;;;;1.98;0.90;;;;;;;;;;4973762;28;20049;-64
2022/09/18 09:01:32;;;;;;;3.17;1.27;;;;;;;;;;4969909;28;20057;-66
2022/09/18 09:04:09;;;;;;;2.75;1.20;;;;;;;;;;4973601;28;20069;-67
2022/09/18 09:06:55;;;;;;;5.35;1.50;;;;;;;;;;4973202;28;20062;-66
2022/09/18 09:09:36;;;;;;;4.13;0.80;;;;;;;;;;4974019;28;20039;-66
2022/09/18 09:12:18;;;;;;;0.68;0.43;;;;;;;;;;4973852;28;20057;-66
2022/09/18 09:15:02;;;;;;;0.85;0.40;;;;;;;;;;4973685;28;20062;-67
2022/09/18 09:17:38;;;;;;;1.98;0.50;;;;;;;;;;4973545;28;20058;-67
2022/09/18 09:20:05;;;;;;;1.02;0.68;;;;;;;;;;4971612;28;20411;-67
2022/09/18 09:22:50;;;;;;;2.17;0.73;;;;;;;;;;4973081;28;20518;-66
2022/09/18 09:25:21;;;;;;;2.58;0.77;;;;;;;;;;4973094;28;20061;-66
2022/09/18 09:27:52;;;;;;;1.95;0.55;;;;;;;;;;4972951;28;20050;-66
2022/09/18 09:30:19;;;;;;;4.22;0.75;;;;;;;;;;4973039;28;20051;-66
2022/09/18 09:32:48;;;;;;;1.25;0.75;;;;;;;;;;4973256;28;20050;-66
2022/09/18 09:35:25;;;;;;;0.95;0.50;;;;;;;;;;4972629;28;20050;-66
2022/09/18 09:37:52;;;;;;;2.13;0.70;;;;;;;;;;4973250;28;20061;-66
2022/09/18 09:40:37;;;;;;;1.30;0.70;;;;;;;;;;4973032;28;20061;-66
2022/09/18 09:43:12;;;;;;;2.60;0.90;;;;;;;;;;4972901;28;20047;-66
2022/09/18 09:45:47;;;;;;;1.35;0.85;;;;;;;;;;4972856;28;20414;-65
2022/09/18 09:48:16;;;;;;;2.13;0.80;;;;;;;;;;4967810;28;20058;-65
2022/09/18 09:50:52;;;;;;;5.43;2.10;;;;;;;;;;4972288;28;20419;-65
2022/09/18 09:53:18;;;;;;;3.60;1.20;;;;;;;;;;4972442;28;20078;-66
2022/09/18 09:55:46;;;;;;;1.98;0.80;;;;;;;;;;4972821;28;20055;-66
2022/09/18 09:58:33;;;;;;;3.30;1.52;;;;;;;;;;4973211;28;20051;-65
2022/09/18 10:01:10;;;;;;;4.00;1.40;;;;;;;;;;4965431;28;20065;-66
2022/09/18 10:03:50;;;;;;;0.75;0.55;;;;;;;;;;4972944;28;20102;-65
2022/09/18 10:06:30;;;;;;;3.33;1.67;;;;;;;;;;4972750;28;20054;-65
2022/09/18 10:09:19;;;;;;;3.35;2.00;;;;;;;;;;4972744;28;20050;-65
2022/09/18 10:11:50;;;;;;;2.80;1.00;;;;;;;;;;4973061;28;20058;-65
2022/09/18 10:14:24;;;;;;;1.00;0.88;;;;;;;;;;4972536;28;20501;-65
2022/09/18 10:16:51;;;;;;;2.65;0.90;;;;;;;;;;4971896;28;20055;-65
2022/09/18 10:19:19;;;;;;;1.20;1.10;;;;;;;;;;4974378;28;20071;-65
2022/09/18 10:21:46;;;;;;;1.77;0.88;;;;;;;;;;4975842;28;20422;-65
2022/09/18 10:24:18;;;;;;;0.82;0.70;;;;;;;;;;4976682;28;20039;-65
2022/09/18 10:26:48;;;;;;;1.48;0.60;;;;;;;;;;4976649;28;20047;-66
2022/09/18 10:29:16;;;;;;;1.55;0.80;;;;;;;;;;4975398;28;20054;-66
2022/09/18 10:31:50;;;;;;;2.45;0.90;;;;;;;;;;4976682;28;20061;-66
2022/09/18 10:34:35;;;;;;;1.95;1.08;;;;;;;;;;4976566;28;20087;-66
2022/09/18 10:37:02;;;;;;;0.73;0.60;;;;;;;;;;4976778;28;20063;-66
2022/09/18 10:39:30;;;;;;;2.03;1.00;;;;;;;;;;4976696;28;20057;-66
2022/09/18 10:42:01;;;;;;;1.90;0.60;;;;;;;;;;4976622;28;20125;-66
2022/09/18 10:44:34;;;;;;;1.25;0.50;;;;;;;;;;4976303;28;20054;-66
2022/09/18 10:47:04;;;;;;;1.20;0.47;;;;;;;;;;4975147;28;20051;-66
2022/09/18 10:49:31;;;;;;;1.50;0.80;;;;;;;;;;4975062;28;20054;-66
2022/09/18 10:52:28;;;;;;;1.08;0.57;;;;;;;;;;4976149;28;20065;-66
2022/09/18 10:54:57;;;;;;;2.78;0.40;;;;;;;;;;4938154;28;20063;-66
2022/09/18 10:57:32;;;;;;;1.52;0.60;;;;;;;;;;4967199;28;20059;-66
2022/09/18 10:59:59;;;;;;;0.70;0.35;;;;;;;;;;4976134;28;20046;-66
2022/09/18 11:02:32;;;;;;;2.90;0.60;;;;;;;;;;4975906;28;20410;-66
2022/09/18 11:05:00;;;;;;;0.63;0.60;;;;;;;;;;4976129;28;20046;-66
2022/09/18 11:07:27;;;;;;;2.35;0.65;;;;;;;;;;4976015;28;20049;-66
2022/09/18 11:09:53;;;;;;;1.20;0.38;;;;;;;;;;4976121;28;20053;-66
2022/09/18 11:12:21;;;;;;;2.00;0.50;;;;;;;;;;4976304;28;20051;-66
2022/09/18 11:14:54;;;;;;;0.50;0.38;;;;;;;;;;4976179;28;20050;-66
2022/09/18 11:17:23;;;;;;;1.85;0.70;;;;;;;;;;4975865;28;20054;-66
2022/09/18 11:19:51;;;;;;;3.03;0.73;;;;;;;;;;4975693;28;20054;-65
2022/09/18 11:22:30;;;;;;;0.70;0.50;;;;;;;;;;4974244;28;20053;-65
2022/09/18 11:25:11;;;;;;;1.15;0.60;;;;;;;;;;4975877;28;20055;-65
2022/09/18 11:27:45;;;;;;;2.00;0.60;;;;;;;;;;4975545;28;20058;-65
2022/09/18 11:30:13;;;;;;;2.55;0.70;;;;;;;;;;4975307;28;20046;-66
2022/09/18 11:32:40;;;;;;;1.45;0.50;;;;;;;;;;4975288;28;20073;-66
2022/09/18 11:35:12;;;;;;;1.38;0.68;;;;;;;;;;4975478;28;20066;-65
2022/09/18 11:37:42;;;;;;;2.53;1.48;;;;;;;;;;4975522;28;20054;-65
2022/09/18 11:40:29;;;;;;;1.63;0.70;;;;;;;;;;4975471;28;20058;-65
2022/09/18 11:42:55;;;;;;;0.93;0.45;;;;;;;;;;4975006;28;20046;-66
2022/09/18 11:45:51;;;;;;;2.30;1.00;;;;;;;;;;4975371;28;20053;-66
2022/09/18 11:48:35;;;;;;;1.90;0.60;;;;;;;;;;4956609;28;20046;-66
2022/09/18 11:51:04;;;;;;;1.52;0.60;;;;;;;;;;4975436;28;20051;-66
2022/09/18 11:53:42;;;;;;;1.80;0.70;;;;;;;;;;4975111;28;20047;-66
2022/09/18 11:56:34;;;;;;;1.20;0.40;;;;;;;;;;4975060;28;20047;-66
2022/09/18 11:59:04;;;;;;;0.80;0.52;;;;;;;;;;4972980;28;20054;-66
2022/09/18 12:01:42;;;;;;;1.50;0.75;;;;;;;;;;4975340;28;20051;-65
2022/09/18 12:04:11;;;;;;;1.45;1.00;;;;;;;;;;4975229;28;20051;-66
2022/09/18 12:06:41;;;;;;;1.05;0.60;;;;;;;;;;4974264;28;20069;-66
2022/09/18 12:09:14;;;;;;;2.10;0.90;;;;;;;;;;4970493;28;20046;-66
2022/09/18 12:12:09;;;;;;;1.40;0.60;;;;;;;;;;4974714;28;20414;-66
2022/09/18 12:14:45;;;;;;;1.33;0.60;;;;;;;;;;4965581;28;20050;-66
2022/09/18 12:17:22;;;;;;;1.90;0.80;;;;;;;;;;4974385;28;20057;-66
2022/09/18 12:19:49;;;;;;;;;;;;;;;;;;4974858;28;20046;-66
2022/09/18 12:22:18;;;;;;;1.00;0.80;;;;;;;;;;4974409;28;19929;-65
2022/09/18 12:24:44;;;;;;;1.20;0.60;;;;;;;;;;4974093;28;20053;-67
2022/09/18 12:27:11;;;;;;;1.95;0.60;;;;;;;;;;4974222;28;20049;-67
2022/09/18 12:29:37;;;;;;;1.90;0.70;;;;;;;;;;4974796;28;20051;-66
2022/09/18 12:32:03;;;;;;;2.05;1.08;;;;;;;;;;4974423;28;20291;-67
2022/09/18 12:34:30;;;;;;;1.73;1.02;;;;;;;;;;4974576;28;20070;-66
2022/09/18 12:37:10;;;;;;;2.65;1.58;;;;;;;;;;4974580;28;20050;-67
2022/09/18 12:40:01;;;;;;;1.05;0.95;;;;;;;;;;4974554;28;20058;-66
2022/09/18 12:42:54;;;;;;;1.48;0.88;;;;;;;;;;4969381;28;20509;-66
2022/09/18 12:45:27;;;;;;;1.17;1.08;;;;;;;;;;4969501;28;20047;-67
2022/09/18 12:48:12;;;;;;;1.50;1.15;;;;;;;;;;4974041;28;20043;-66
2022/09/18 12:50:42;;;;;;;2.10;1.10;;;;;;;;;;4973951;28;20501;-67
2022/09/18 12:53:17;;;;;;;1.65;1.10;;;;;;;;;;4973815;28;20076;-66
2022/09/18 12:56:10;;;;;;;2.47;0.70;;;;;;;;;;4972317;28;20059;-66
2022/09/18 12:58:37;;;;;;;2.03;1.40;;;;;;;;;;4973854;28;20047;-66
2022/09/18 13:01:08;;;;;;;3.53;1.38;;;;;;;;;;4973840;28;20042;-66
2022/09/18 13:03:36;;;;;;;2.67;1.50;;;;;;;;;;4973803;28;20459;-66
2022/09/18 13:06:08;;;;;;;1.40;0.75;;;;;;;;;;4973791;28;20065;-66
2022/09/18 13:08:54;;;;;;;2.03;0.90;;;;;;;;;;4970891;28;20051;-66
2022/09/18 13:11:39;;;;;;;3.08;1.35;;;;;;;;;;4973754;28;20053;-66
2022/09/18 13:14:09;;;;;;;1.42;1.20;;;;;;;;;;4972793;28;20054;-66
2022/09/18 13:16:45;;;;;;;2.58;2.40;;;;;;;;;;4973446;28;20039;-66
2022/09/18 13:19:15;;;;;;;1.70;1.40;;;;;;;;;;4971383;28;20047;-66
2022/09/18 13:21:43;;;;;;;1.33;0.70;;;;;;;;;;4973751;28;20057;-66
2022/09/18 13:24:12;;;;;;;2.65;1.38;;;;;;;;;;4968287;28;20407;-66
2022/09/18 13:26:39;;;;;;;1.48;1.30;;;;;;;;;;4972060;28;20050;-66
2022/09/18 13:29:24;;;;;;;3.40;1.70;;;;;;;;;;4973606;28;20047;-66
2022/09/18 13:31:52;;;;;;;1.67;0.73;;;;;;;;;;4973225;28;20073;-66
2022/09/18 13:34:19;;;;;;;4.07;2.42;;;;;;;;;;4972864;28;20054;-66
2022/09/18 13:36:46;;;;;;;2.45;0.90;;;;;;;;;;4974425;28;20055;-66
2022/09/18 13:39:27;;;;;;;0.98;0.73;;;;;;;;;;4973045;28;20061;-66
2022/09/18 13:41:55;;;;;;;4.20;0.88;;;;;;;;;;4972438;28;20046;-65
2022/09/18 13:44:23;;;;;;;2.08;0.95;;;;;;;;;;4973018;28;20061;-65
2022/09/18 13:46:52;;;;;;;2.65;0.90;;;;;;;;;;4971934;28;20057;-65
2022/09/18 13:49:18;;;;;;;2.70;0.85;;;;;;;;;;4973317;28;20043;-65
2022/09/18 13:51:44;;;;;;;1.58;0.70;;;;;;;;;;4973401;28;20050;-66
2022/09/18 13:54:11;;;;;;;2.47;0.93;;;;;;;;;;4968940;28;20054;-66
2022/09/18 13:56:56;;;;;;;2.78;0.80;;;;;;;;;;4971219;28;20143;-67
2022/09/18 13:59:41;;;;;;;2.55;0.93;;;;;;;;;;4972403;28;20521;-67
2022/09/18 14:02:23;;;;;;;2.33;0.97;;;;;;;;;;4955295;28;20054;-67
2022/09/18 14:04:59;;;;;;;1.30;0.57;;;;;;;;;;4970207;28;20524;-67
2022/09/18 14:07:25;;;;;;;0.70;0.70;;;;;;;;;;4971526;28;20073;-67
2022/09/18 14:09:53;;;;;;;3.58;0.90;;;;;;;;;;4967647;28;20830;-67
2022/09/18 14:12:20;;;;;;;4.28;0.98;;;;;;;;;;4955976;28;20051;-67
2022/09/18 14:14:46;;;;;;;;;;;;;;;;;;4972971;28;20055;-67
2022/09/18 14:17:14;;;;;;;1.38;0.57;;;;;;;;;;4962183;28;19926;-67
2022/09/18 14:19:43;;;;;;;1.73;0.50;;;;;;;;;;4966144;28;20059;-67
2022/09/18 14:22:22;;;;;;;2.53;0.50;;;;;;;;;;4970104;28;20765;-67
2022/09/18 14:24:48;;;;;;;2.80;0.68;;;;;;;;;;4957259;28;20490;-67
2022/09/18 14:27:34;;;;;;;1.58;0.80;;;;;;;;;;4972270;28;20513;-67
2022/09/18 14:30:13;;;;;;;0.47;0.40;;;;;;;;;;4972446;28;20046;-67
2022/09/18 14:32:40;;;;;;;6.18;0.90;;;;;;;;;;4971828;28;20081;-67
2022/09/18 14:35:25;;;;;;;1.00;0.68;;;;;;;;;;4958293;28;20399;-68
2022/09/18 14:37:52;;;;;;;3.05;0.98;;;;;;;;;;4972164;28;20069;-67
2022/09/18 14:40:22;;;;;;;1.48;0.77;;;;;;;;;;4972065;28;20058;-66
2022/09/18 14:42:49;;;;;;;1.20;0.52;;;;;;;;;;4970778;28;20082;-66
2022/09/18 14:45:16;;;;;;;1.33;0.40;;;;;;;;;;4972218;28;20423;-66
2022/09/18 14:47:43;;;;;;;2.28;0.43;;;;;;;;;;4969682;28;20415;-67
2022/09/18 14:50:22;;;;;;;1.63;0.57;;;;;;;;;;4971072;28;20062;-66
2022/09/18 14:52:48;;;;;;;1.90;0.57;;;;;;;;;;4970991;28;20062;-66
2022/09/18 14:55:19;;;;;;;0.63;0.52;;;;;;;;;;4971552;28;20050;-66
2022/09/18 14:57:48;;;;;;;3.25;0.60;;;;;;;;;;4971975;28;20051;-67
2022/09/18 15:00:19;;;;;;;2.30;0.57;;;;;;;;;;4972523;28;20043;-66
2022/09/18 15:02:49;;;;;;;2.47;0.60;;;;;;;;;;4972415;28;20059;-66
2022/09/18 15:05:17;;;;;;;1.95;1.00;;;;;;;;;;4973592;28;20414;-66